createdAt,value
2018-10-09T00:00:57.074Z,23.83
2018-10-09T00:03:25.485Z,22.63
2018-10-09T00:05:54.004Z,22.00
2018-10-09T00:08:22.473Z,21.93
2018-10-09T00:10:50.978Z,24.37
2018-10-09T00:13:19.417Z,22.77
2018-10-09T00:15:47.893Z,23.10
2018-10-09T00:18:16.419Z,21.57
2018-10-09T00:20:44.932Z,25.60
2018-10-09T00:23:13.391Z,24.17
2018-10-09T00:25:41.873Z,28.13
2018-10-09T00:28:10.328Z,31.50
2018-10-09T00:30:38.946Z,27.67
2018-10-09T00:33:07.446Z,26.53
2018-10-09T00:35:35.901Z,28.00
2018-10-09T00:38:04.465Z,33.10
2018-10-09T00:40:32.902Z,35.73
2018-10-09T00:43:01.391Z,30.20
2018-10-09T00:45:29.926Z,31.67
2018-10-09T00:47:58.426Z,29.10
2018-10-09T00:50:26.943Z,25.47
2018-10-09T00:52:55.489Z,28.30
2018-10-09T00:55:23.993Z,26.17
2018-10-09T00:57:52.532Z,26.33
2018-10-09T01:00:21.057Z,31.90
2018-10-09T01:02:49.522Z,31.40
2018-10-09T01:05:18.036Z,31.07
2018-10-09T01:07:46.521Z,30.60
2018-10-09T01:10:15.044Z,24.77
2018-10-09T01:12:43.488Z,23.87
2018-10-09T01:15:12.073Z,23.43
2018-10-09T01:17:40.516Z,25.13
2018-10-09T01:20:09.002Z,24.33
2018-10-09T01:22:37.485Z,24.43
2018-10-09T01:25:05.944Z,24.90
2018-10-09T01:27:34.487Z,26.23
2018-10-09T01:30:03.010Z,26.73
2018-10-09T01:32:31.480Z,29.20
2018-10-09T01:34:59.934Z,29.73
2018-10-09T01:37:28.432Z,31.33
2018-10-09T01:39:56.849Z,33.03
2018-10-09T01:42:25.327Z,29.93
2018-10-09T01:44:53.777Z,31.93
2018-10-09T01:47:22.288Z,30.27
2018-10-09T01:49:50.701Z,29.93
2018-10-09T01:52:19.213Z,32.23
2018-10-09T01:54:47.722Z,29.60
2018-10-09T01:57:16.205Z,29.67
2018-10-09T01:59:44.666Z,31.67
2018-10-09T02:02:13.179Z,32.67
2018-10-09T02:04:41.662Z,31.33
2018-10-09T02:07:10.134Z,32.20
2018-10-09T02:09:38.653Z,32.83
2018-10-09T02:12:07.214Z,32.77
2018-10-09T02:14:35.722Z,35.37
2018-10-09T02:17:04.261Z,32.00
2018-10-09T02:19:32.769Z,34.07
2018-10-09T02:22:01.301Z,36.23
2018-10-09T02:24:29.791Z,38.00
2018-10-09T02:26:58.316Z,36.10
2018-10-09T02:29:26.802Z,37.30
2018-10-09T02:31:55.308Z,37.10
2018-10-09T02:34:23.823Z,28.93
2018-10-09T02:36:52.339Z,25.27
2018-10-09T02:39:20.810Z,26.80
2018-10-09T02:41:49.307Z,27.37
2018-10-09T02:44:17.760Z,27.70
2018-10-09T02:46:46.227Z,26.10
2018-10-09T02:49:14.680Z,28.83
2018-10-09T02:51:43.154Z,27.27
2018-10-09T02:54:11.586Z,28.13
2018-10-09T02:56:40.067Z,29.70
2018-10-09T02:59:08.533Z,29.33
2018-10-09T03:01:37.054Z,30.60
2018-10-09T03:04:05.711Z,30.53
2018-10-09T03:06:34.237Z,32.97
2018-10-09T03:09:02.755Z,33.10
2018-10-09T03:11:31.218Z,31.73
2018-10-09T03:13:59.667Z,31.93
2018-10-09T03:16:28.161Z,31.70
2018-10-09T03:18:56.615Z,30.83
2018-10-09T03:21:25.153Z,29.87
2018-10-09T03:23:53.633Z,29.57
2018-10-09T03:26:22.157Z,29.10
2018-10-09T03:28:50.618Z,32.70
2018-10-09T03:31:19.102Z,30.73
2018-10-09T03:33:47.542Z,30.93
2018-10-09T03:36:16.045Z,29.40
2018-10-09T03:38:44.480Z,27.63
2018-10-09T03:41:12.962Z,26.73
2018-10-09T03:43:41.397Z,27.47
2018-10-09T03:46:09.901Z,30.70
2018-10-09T03:48:42.643Z,29.47
2018-10-09T03:51:11.739Z,28.77
2018-10-09T03:53:40.246Z,29.27
2018-10-09T03:56:08.752Z,30.90
2018-10-09T03:58:39.173Z,31.10
2018-10-09T04:01:10.078Z,28.57
2018-10-09T04:03:40.693Z,29.37
2018-10-09T04:06:11.787Z,28.63
2018-10-09T04:08:40.223Z,37.17
2018-10-09T04:11:08.696Z,35.03
2018-10-09T04:13:37.328Z,40.37
2018-10-09T04:16:06.110Z,40.63
2018-10-09T04:18:34.606Z,40.67
2018-10-09T04:21:03.084Z,44.07
2018-10-09T04:23:31.569Z,41.00
2018-10-09T04:26:00.009Z,39.17
2018-10-09T04:28:28.488Z,39.90
2018-10-09T04:30:56.922Z,41.33
2018-10-09T04:33:25.386Z,37.57
2018-10-09T04:35:53.863Z,40.83
2018-10-09T04:38:25.399Z,41.33
2018-10-09T04:40:53.833Z,37.10
2018-10-09T04:43:22.995Z,35.73
2018-10-09T04:45:51.491Z,35.43
2018-10-09T04:48:20.074Z,37.10
2018-10-09T04:50:48.545Z,35.97
2018-10-09T04:53:17.042Z,35.77
2018-10-09T04:55:45.498Z,31.50
2018-10-09T04:58:13.984Z,34.10
2018-10-09T05:00:42.499Z,33.60
2018-10-09T05:03:10.950Z,34.17
2018-10-09T05:05:39.393Z,33.33
2018-10-09T05:08:08.066Z,28.43
2018-10-09T05:10:36.493Z,27.97
2018-10-09T05:13:04.989Z,29.67
2018-10-09T05:15:33.433Z,29.97
2018-10-09T05:18:01.919Z,31.13
2018-10-09T05:20:30.383Z,31.00
2018-10-09T05:22:58.854Z,32.93
2018-10-09T05:25:27.291Z,36.23
2018-10-09T05:27:55.773Z,36.80
2018-10-09T05:30:24.209Z,33.23
2018-10-09T05:32:52.683Z,36.67
2018-10-09T05:35:21.178Z,34.80
2018-10-09T05:37:56.178Z,33.00
2018-10-09T05:40:24.704Z,33.57
2018-10-09T05:42:53.175Z,33.10
2018-10-09T05:45:21.618Z,36.40
2018-10-09T05:47:50.126Z,36.10
2018-10-09T05:50:18.606Z,37.57
2018-10-09T05:52:47.088Z,38.63
2018-10-09T05:55:15.540Z,35.70
2018-10-09T05:57:44.018Z,36.40
2018-10-09T06:00:12.441Z,38.07
2018-10-09T06:02:40.910Z,37.87
2018-10-09T06:05:09.387Z,40.97
2018-10-09T06:07:37.850Z,37.90
2018-10-09T06:10:07.479Z,40.20
2018-10-09T06:12:35.950Z,34.77
2018-10-09T06:15:04.479Z,35.97
2018-10-09T06:17:32.942Z,36.60
2018-10-09T06:20:01.385Z,37.93
2018-10-09T06:22:29.865Z,39.77
2018-10-09T06:24:58.377Z,36.10
2018-10-09T06:27:26.989Z,38.63
2018-10-09T06:29:55.448Z,38.77
2018-10-09T06:32:23.923Z,36.40
2018-10-09T06:34:52.387Z,34.53
2018-10-09T06:37:20.894Z,38.63
2018-10-09T06:39:49.298Z,35.90
2018-10-09T06:42:17.778Z,37.30
2018-10-09T06:44:46.222Z,39.40
2018-10-09T06:47:14.722Z,39.60
2018-10-09T06:49:43.179Z,39.70
2018-10-09T06:52:11.655Z,38.63
2018-10-09T06:54:40.158Z,39.43
2018-10-09T06:57:08.566Z,37.67
2018-10-09T06:59:36.999Z,38.20
2018-10-09T07:02:05.479Z,38.80
2018-10-09T07:04:33.925Z,41.53
2018-10-09T07:07:02.413Z,42.47
2018-10-09T07:09:30.891Z,43.77
2018-10-09T07:11:59.383Z,41.00
2018-10-09T07:14:27.839Z,42.20
2018-10-09T07:16:56.315Z,40.87
2018-10-09T07:19:24.763Z,42.17
2018-10-09T07:21:53.263Z,43.73
2018-10-09T07:24:21.694Z,41.70
2018-10-09T07:26:50.180Z,41.53
2018-10-09T07:29:18.620Z,42.17
2018-10-09T07:31:47.072Z,41.83
2018-10-09T07:34:15.568Z,41.13
2018-10-09T07:36:44.051Z,39.67
2018-10-09T07:39:13.606Z,41.80
2018-10-09T07:41:42.623Z,41.33
2018-10-09T07:44:14.106Z,40.33
2018-10-09T07:46:42.562Z,40.13
2018-10-09T07:49:11.032Z,40.83
2018-10-09T07:51:39.509Z,41.23
2018-10-09T07:54:08.082Z,38.67
2018-10-09T07:56:36.595Z,39.40
2018-10-09T07:59:05.042Z,39.27
2018-10-09T08:01:33.512Z,37.90
2018-10-09T08:04:01.962Z,37.23
2018-10-09T08:06:30.463Z,37.30
2018-10-09T08:08:58.913Z,38.43
2018-10-09T08:11:27.410Z,35.87
2018-10-09T08:13:55.855Z,36.53
2018-10-09T08:16:24.376Z,37.03
2018-10-09T08:18:52.803Z,35.47
2018-10-09T08:21:21.301Z,37.07
2018-10-09T08:23:49.757Z,37.67
2018-10-09T08:26:18.198Z,37.97
2018-10-09T08:28:46.695Z,36.83
2018-10-09T08:31:15.146Z,37.57
2018-10-09T08:33:43.681Z,35.63
2018-10-09T08:36:12.148Z,36.27
2018-10-09T08:38:40.628Z,37.37
2018-10-09T08:41:09.174Z,38.17
2018-10-09T08:43:37.620Z,36.50
2018-10-09T08:46:06.069Z,36.60
2018-10-09T08:48:34.547Z,37.03
2018-10-09T08:51:03.019Z,37.40
2018-10-09T08:53:31.514Z,36.77
2018-10-09T08:55:59.987Z,36.80
2018-10-09T08:58:28.593Z,36.10
2018-10-09T09:00:57.071Z,36.10
2018-10-09T09:03:25.601Z,35.00
2018-10-09T09:05:54.075Z,34.27
2018-10-09T09:08:22.552Z,35.90
2018-10-09T09:10:51.005Z,33.40
2018-10-09T09:13:19.505Z,33.73
2018-10-09T09:15:48.031Z,34.90
2018-10-09T09:18:16.506Z,34.53
2018-10-09T09:20:45.017Z,34.37
2018-10-09T09:23:13.454Z,33.63
2018-10-09T09:25:41.957Z,31.73
2018-10-09T09:28:10.854Z,32.67
2018-10-09T09:30:39.349Z,30.17
2018-10-09T09:33:07.912Z,30.13
2018-10-09T09:35:36.406Z,29.57
2018-10-09T09:38:04.866Z,29.00
2018-10-09T09:40:33.428Z,27.23
2018-10-09T09:43:01.895Z,27.67
2018-10-09T09:45:30.491Z,26.93
2018-10-09T09:47:58.953Z,25.50
2018-10-09T09:50:27.478Z,24.80
2018-10-09T09:52:56.002Z,23.57
2018-10-09T09:55:24.483Z,23.97
2018-10-09T09:57:53.044Z,24.40
2018-10-09T10:00:26.692Z,24.57
2018-10-09T10:02:55.153Z,22.93
2018-10-09T10:05:23.611Z,22.87
2018-10-09T10:07:52.134Z,22.53
2018-10-09T10:10:20.602Z,24.50
2018-10-09T10:12:49.065Z,24.80
2018-10-09T10:15:17.511Z,25.20
2018-10-09T10:17:45.992Z,24.70
2018-10-09T10:20:14.506Z,26.30
2018-10-09T10:22:42.983Z,24.93
2018-10-09T10:25:11.475Z,24.97
2018-10-09T10:27:40.030Z,23.97
2018-10-09T10:30:08.531Z,23.37
2018-10-09T10:32:37.019Z,24.23
2018-10-09T10:35:05.628Z,25.27
2018-10-09T10:37:34.460Z,22.43
2018-10-09T10:40:02.956Z,22.57
2018-10-09T10:42:31.407Z,23.43
2018-10-09T10:44:59.865Z,22.10
2018-10-09T10:47:28.372Z,22.67
2018-10-09T10:49:56.843Z,22.37
2018-10-09T10:52:25.277Z,23.53
2018-10-09T10:54:53.806Z,21.13
2018-10-09T10:57:22.267Z,21.03
2018-10-09T10:59:50.962Z,20.93
2018-10-09T11:02:19.441Z,21.37
2018-10-09T11:04:47.953Z,21.83
2018-10-09T11:07:16.451Z,21.93
2018-10-09T11:09:44.950Z,21.63
2018-10-09T11:12:13.396Z,21.43
2018-10-09T11:14:41.941Z,23.23
2018-10-09T11:17:10.391Z,20.50
2018-10-09T11:19:39.117Z,20.77
2018-10-09T11:22:07.630Z,22.00
2018-10-09T11:24:36.160Z,20.17
2018-10-09T11:27:04.640Z,23.10
2018-10-09T11:29:33.130Z,20.93
2018-10-09T11:32:01.613Z,22.87
2018-10-09T11:34:30.082Z,22.30
2018-10-09T11:36:58.524Z,20.63
2018-10-09T11:39:27.003Z,20.87
2018-10-09T11:41:55.431Z,19.27
2018-10-09T11:44:23.917Z,20.83
2018-10-09T11:46:52.351Z,18.82
2018-10-09T11:49:20.825Z,19.98
2018-10-09T11:51:49.300Z,18.82
2018-10-09T11:54:17.858Z,18.87
2018-10-09T11:56:46.967Z,17.55
2018-10-09T11:59:15.529Z,15.80
2018-10-09T12:01:44.046Z,16.87
2018-10-09T12:04:12.570Z,16.40
2018-10-09T12:06:47.644Z,16.57
2018-10-09T12:09:16.194Z,15.78
2018-10-09T12:11:44.657Z,16.15
2018-10-09T12:14:13.474Z,17.85
2018-10-09T12:16:41.995Z,14.93
2018-10-09T12:19:10.966Z,15.70
2018-10-09T12:21:39.991Z,16.52
2018-10-09T12:24:08.865Z,17.75
2018-10-09T12:26:38.470Z,17.45
2018-10-09T12:29:07.013Z,15.85
2018-10-09T12:31:35.506Z,14.63
2018-10-09T12:34:04.206Z,14.60
2018-10-09T12:36:33.539Z,14.95
2018-10-09T12:39:02.093Z,14.23
2018-10-09T12:41:30.543Z,13.22
2018-10-09T12:43:59.170Z,12.63
2018-10-09T12:46:27.469Z,12.63
2018-10-09T12:48:55.983Z,12.93
2018-10-09T12:51:24.429Z,13.32
2018-10-09T12:53:52.954Z,15.58
2018-10-09T12:56:21.395Z,15.03
2018-10-09T12:58:49.914Z,14.20
2018-10-09T13:01:18.366Z,12.90
2018-10-09T13:03:46.843Z,13.62
2018-10-09T13:06:15.311Z,13.40
2018-10-09T13:08:43.809Z,12.70
2018-10-09T13:11:12.252Z,11.25
2018-10-09T13:13:40.749Z,11.90
2018-10-09T13:16:09.235Z,12.10
2018-10-09T13:18:37.726Z,12.55
2018-10-09T13:21:06.335Z,13.10
2018-10-09T13:23:34.794Z,12.85
2018-10-09T13:26:03.248Z,12.80
2018-10-09T13:28:31.802Z,12.20
2018-10-09T13:31:00.358Z,11.80
2018-10-09T13:33:28.796Z,12.30
2018-10-09T13:35:57.270Z,12.35
2018-10-09T13:38:25.827Z,10.80
2018-10-09T13:40:54.317Z,10.88
2018-10-09T13:43:22.849Z,10.90
2018-10-09T13:45:51.270Z,9.85
2018-10-09T13:48:19.813Z,10.53
2018-10-09T13:50:48.333Z,9.68
2018-10-09T13:53:16.738Z,8.55
2018-10-09T13:55:45.212Z,8.45
2018-10-09T13:58:13.681Z,8.55
2018-10-09T14:00:42.234Z,7.40
2018-10-09T14:03:10.918Z,7.58
2018-10-09T14:05:39.346Z,8.08
2018-10-09T14:08:07.830Z,7.90
2018-10-09T14:10:36.311Z,7.37
2018-10-09T14:13:04.808Z,6.37
2018-10-09T14:15:33.273Z,6.35
2018-10-09T14:18:01.867Z,8.73
2018-10-09T14:20:30.333Z,7.90
2018-10-09T14:22:58.850Z,7.78
2018-10-09T14:25:27.318Z,8.40
2018-10-09T14:27:55.805Z,9.25
2018-10-09T14:30:24.322Z,7.60
2018-10-09T14:32:52.951Z,8.18
2018-10-09T14:35:21.410Z,7.80
2018-10-09T14:37:50.001Z,6.97
2018-10-09T14:40:18.526Z,6.70
2018-10-09T14:42:47.169Z,7.37
2018-10-09T14:45:15.631Z,7.67
2018-10-09T14:47:44.118Z,8.50
2018-10-09T14:50:12.586Z,7.90
2018-10-09T14:52:41.257Z,7.75
2018-10-09T14:55:09.989Z,7.70
2018-10-09T14:57:38.660Z,8.37
2018-10-09T15:00:08.960Z,7.80
2018-10-09T15:02:37.469Z,7.87
2018-10-09T15:05:05.986Z,7.23
2018-10-09T15:07:34.489Z,7.77
2018-10-09T15:10:03.012Z,8.10
2018-10-09T15:12:31.479Z,6.23
2018-10-09T15:15:00.002Z,5.37
2018-10-09T15:17:28.599Z,5.87
2018-10-09T15:19:57.028Z,6.43
2018-10-09T15:22:25.651Z,6.60
2018-10-09T15:24:54.795Z,6.20
2018-10-09T15:27:23.401Z,6.60
2018-10-09T15:29:52.103Z,6.37
2018-10-09T15:32:20.656Z,6.73
2018-10-09T15:34:49.276Z,6.93
2018-10-09T15:37:18.006Z,7.93
2018-10-09T15:39:46.482Z,7.60
2018-10-09T15:42:14.971Z,8.10
2018-10-09T15:44:43.695Z,10.23
2018-10-09T15:47:12.669Z,8.33
2018-10-09T15:49:42.281Z,9.43
2018-10-09T15:52:11.160Z,8.90
2018-10-09T15:54:39.998Z,7.90
2018-10-09T15:57:08.634Z,9.70
2018-10-09T15:59:37.109Z,10.17
2018-10-09T16:02:06.015Z,9.70
2018-10-09T16:04:34.563Z,10.17
2018-10-09T16:07:03.027Z,9.30
2018-10-09T16:09:31.669Z,9.27
2018-10-09T16:12:00.112Z,9.53
2018-10-09T16:14:28.678Z,10.10
2018-10-09T16:16:57.170Z,9.73
2018-10-09T16:19:25.669Z,10.23
2018-10-09T16:21:54.146Z,10.33
2018-10-09T16:24:22.614Z,10.10
2018-10-09T16:26:51.137Z,11.27
2018-10-09T16:29:19.592Z,10.73
2018-10-09T16:31:48.137Z,10.50
2018-10-09T16:34:16.611Z,11.03
2018-10-09T16:36:45.102Z,10.63
2018-10-09T16:39:14.246Z,10.27
2018-10-09T16:41:42.714Z,11.33
2018-10-09T16:44:11.701Z,10.43
2018-10-09T16:46:40.522Z,11.00
2018-10-09T16:49:08.944Z,10.77
2018-10-09T16:51:37.446Z,10.07
2018-10-09T16:54:09.056Z,10.93
2018-10-09T16:56:37.602Z,11.07
2018-10-09T16:59:06.068Z,11.13
2018-10-09T17:01:36.402Z,10.93
2018-10-09T17:04:05.258Z,10.60
2018-10-09T17:06:33.829Z,10.13
2018-10-09T17:09:02.335Z,10.83
2018-10-09T17:11:30.880Z,11.53
2018-10-09T17:13:59.343Z,11.17
2018-10-09T17:16:27.897Z,10.53
2018-10-09T17:18:56.681Z,11.77
2018-10-09T17:21:25.407Z,11.43
2018-10-09T17:23:53.859Z,11.63
2018-10-09T17:26:24.367Z,11.07
2018-10-09T17:28:52.903Z,12.30
2018-10-09T17:31:21.544Z,11.43
2018-10-09T17:33:55.101Z,11.30
2018-10-09T17:36:24.903Z,11.93
2018-10-09T17:38:53.419Z,12.23
2018-10-09T17:41:21.950Z,11.97
2018-10-09T17:43:50.448Z,12.15
2018-10-09T17:46:19.065Z,11.87
2018-10-09T17:48:47.694Z,12.40
2018-10-09T17:51:16.127Z,12.83
2018-10-09T17:53:44.740Z,12.73
2018-10-09T17:56:13.186Z,12.90
2018-10-09T17:58:41.715Z,13.00
2018-10-09T18:01:13.035Z,12.87
2018-10-09T18:03:41.535Z,13.60
2018-10-09T18:06:10.159Z,13.13
2018-10-09T18:08:40.378Z,13.97
2018-10-09T18:11:09.117Z,13.50
2018-10-09T18:13:37.677Z,14.23
2018-10-09T18:16:06.512Z,15.07
2018-10-09T18:18:35.037Z,15.10
2018-10-09T18:21:03.682Z,14.03
2018-10-09T18:23:32.308Z,15.00
2018-10-09T18:26:02.325Z,13.77
2018-10-09T18:28:33.083Z,14.20
2018-10-09T18:31:02.976Z,13.30
2018-10-09T18:33:31.449Z,14.93
2018-10-09T18:35:59.973Z,15.10
2018-10-09T18:38:28.626Z,15.43
2018-10-09T18:40:57.180Z,15.10
2018-10-09T18:43:25.606Z,15.07
2018-10-09T18:45:54.283Z,14.50
2018-10-09T18:48:23.195Z,13.77
2018-10-09T18:50:53.624Z,16.57
2018-10-09T18:53:22.166Z,15.73
2018-10-09T18:55:50.684Z,16.27
2018-10-09T18:58:21.465Z,14.50
2018-10-09T19:00:50.026Z,14.67
2018-10-09T19:03:18.572Z,13.83
2018-10-09T19:05:47.141Z,15.43
2018-10-09T19:08:16.702Z,15.63
2018-10-09T19:10:45.366Z,15.73
2018-10-09T19:13:13.840Z,16.37
2018-10-09T19:15:42.382Z,15.47
2018-10-09T19:18:10.957Z,16.03
2018-10-09T19:20:39.473Z,15.67
2018-10-09T19:23:07.992Z,14.40
2018-10-09T19:25:36.763Z,13.73
2018-10-09T19:28:05.370Z,14.53
2018-10-09T19:30:33.885Z,15.87
2018-10-09T19:33:02.589Z,16.50
2018-10-09T19:35:31.870Z,15.90
2018-10-09T19:38:00.676Z,15.03
2018-10-09T19:40:29.212Z,16.40
2018-10-09T19:42:57.679Z,15.83
2018-10-09T19:45:26.466Z,17.10
2018-10-09T19:47:54.949Z,16.03
2018-10-09T19:50:23.659Z,15.87
2018-10-09T19:52:52.150Z,16.00
2018-10-09T19:55:20.641Z,16.50
2018-10-09T19:57:49.177Z,16.47
2018-10-09T20:00:17.700Z,15.77
2018-10-09T20:02:47.321Z,17.07
2018-10-09T20:05:15.798Z,15.80
2018-10-09T20:07:44.452Z,15.73
2018-10-09T20:10:12.920Z,15.63
2018-10-09T20:12:41.393Z,15.80
2018-10-09T20:15:09.957Z,15.27
2018-10-09T20:17:38.417Z,17.00
2018-10-09T20:20:07.060Z,16.50
2018-10-09T20:22:35.498Z,17.50
2018-10-09T20:25:04.026Z,16.47
2018-10-09T20:27:32.486Z,17.80
2018-10-09T20:30:01.150Z,16.73
2018-10-09T20:32:29.601Z,16.57
2018-10-09T20:34:58.881Z,16.67
2018-10-09T20:37:27.366Z,16.83
2018-10-09T20:39:55.900Z,16.50
2018-10-09T20:42:24.357Z,14.87
2018-10-09T20:44:52.863Z,16.37
2018-10-09T20:47:26.628Z,16.23
2018-10-09T20:49:55.103Z,15.67
2018-10-09T20:52:25.554Z,18.37
2018-10-09T20:54:55.834Z,17.43
2018-10-09T20:57:24.615Z,17.70
2018-10-09T20:59:53.158Z,17.17
2018-10-09T21:02:21.626Z,16.93
2018-10-09T21:04:50.126Z,16.57
2018-10-09T21:07:18.606Z,17.23
2018-10-09T21:09:47.139Z,18.47
2018-10-09T21:12:15.831Z,16.70
2018-10-09T21:14:44.383Z,17.87
2018-10-09T21:17:13.186Z,17.73
2018-10-09T21:19:42.810Z,16.63
2018-10-09T21:22:11.363Z,18.27
2018-10-09T21:24:40.091Z,19.63
2018-10-09T21:27:08.560Z,19.03
2018-10-09T21:29:37.629Z,18.17
2018-10-09T21:32:06.111Z,18.13
2018-10-09T21:34:34.815Z,17.87
2018-10-09T21:37:04.680Z,17.90
2018-10-09T21:39:33.162Z,17.93
2018-10-09T21:42:01.687Z,18.30
2018-10-09T21:44:30.227Z,19.50
2018-10-09T21:46:58.953Z,19.57
2018-10-09T21:49:27.514Z,17.70
2018-10-09T21:51:56.002Z,19.97
2018-10-09T21:54:24.450Z,20.20
2018-10-09T21:56:52.922Z,18.90
2018-10-09T21:59:21.389Z,18.70
2018-10-09T22:01:49.888Z,19.97
2018-10-09T22:04:18.349Z,20.60
2018-10-09T22:06:46.880Z,20.40
2018-10-09T22:09:15.357Z,19.73
2018-10-09T22:11:43.895Z,19.77
2018-10-09T22:14:12.447Z,20.83
2018-10-09T22:16:40.958Z,20.33
2018-10-09T22:19:09.468Z,23.13
2018-10-09T22:21:38.019Z,23.43
2018-10-09T22:24:06.586Z,20.67
2018-10-09T22:26:35.157Z,20.73
2018-10-09T22:29:03.629Z,21.17
2018-10-09T22:31:32.162Z,23.33
2018-10-09T22:34:00.721Z,21.07
2018-10-09T22:36:29.246Z,20.80
2018-10-09T22:38:57.726Z,20.47
2018-10-09T22:41:26.214Z,21.90
2018-10-09T22:43:54.702Z,21.27
2018-10-09T22:46:23.226Z,20.73
2018-10-09T22:48:51.699Z,21.10
2018-10-09T22:51:20.194Z,22.63
2018-10-09T22:53:48.693Z,21.47
2018-10-09T22:56:17.179Z,22.93
2018-10-09T22:58:45.664Z,22.47
2018-10-09T23:01:14.181Z,22.47
2018-10-09T23:03:42.666Z,23.37
2018-10-09T23:06:11.215Z,22.80
2018-10-09T23:08:39.701Z,21.93
2018-10-09T23:11:08.758Z,22.87
2018-10-09T23:13:37.360Z,22.10
2018-10-09T23:16:05.883Z,23.83
2018-10-09T23:18:34.333Z,21.27
2018-10-09T23:21:02.871Z,23.13
2018-10-09T23:23:31.359Z,24.43
2018-10-09T23:25:59.902Z,22.63
2018-10-09T23:28:28.380Z,25.50
2018-10-09T23:30:56.879Z,23.80
2018-10-09T23:33:25.400Z,23.33
2018-10-09T23:35:53.927Z,23.00
2018-10-09T23:38:22.378Z,23.23
2018-10-09T23:40:50.863Z,23.43
2018-10-09T23:43:19.307Z,24.17
2018-10-09T23:45:48.153Z,23.40
2018-10-09T23:48:16.616Z,22.83
2018-10-09T23:50:45.099Z,21.03
2018-10-09T23:53:13.590Z,23.17
2018-10-09T23:55:42.095Z,23.40
2018-10-09T23:58:10.584Z,23.93
